sensor_id;sensor_type;location;lat;lon;timestamp;temperature;humidity
16674;DHT22;8450;52.654;10.326;2023-11-22T00:01:11;2.20;99.90
16674;DHT22;8450;52.654;10.326;2023-11-22T00:03:37;2.30;99.90
16674;DHT22;8450;52.654;10.326;2023-11-22T00:06:03;2.30;99.90
16674;DHT22;8450;52.654;10.326;2023-11-22T00:08:28;2.20;99.90
16674;DHT22;8450;52.654;10.326;2023-11-22T00:10:55;2.20;99.90
16674;DHT22;8450;52.654;10.326;2023-11-22T00:13:20;2.10;99.90
16674;DHT22;8450;52.654;10.326;2023-11-22T00:15:46;2.10;99.90
16674;DHT22;8450;52.654;10.326;2023-11-22T00:18:11;2.10;99.90
16674;DHT22;8450;52.654;10.326;2023-11-22T00:20:37;2.10;99.90
16674;DHT22;8450;52.654;10.326;2023-11-22T00:23:02;2.10;99.90
16674;DHT22;8450;52.654;10.326;2023-11-22T00:25:31;2.00;99.90
16674;DHT22;8450;52.654;10.326;2023-11-22T00:27:58;2.10;99.90
16674;DHT22;8450;52.654;10.326;2023-11-22T00:30:23;2.00;99.90
16674;DHT22;8450;52.654;10.326;2023-11-22T00:32:50;2.00;99.90
16674;DHT22;8450;52.654;10.326;2023-11-22T00:35:17;2.00;99.90
16674;DHT22;8450;52.654;10.326;2023-11-22T00:37:42;1.90;99.90
16674;DHT22;8450;52.654;10.326;2023-11-22T00:40:08;1.90;99.90
16674;DHT22;8450;52.654;10.326;2023-11-22T00:42:37;1.90;99.90
16674;DHT22;8450;52.654;10.326;2023-11-22T00:45:05;1.90;99.90
16674;DHT22;8450;52.654;10.326;2023-11-22T00:47:32;1.90;99.90
16674;DHT22;8450;52.654;10.326;2023-11-22T00:49:58;1.80;99.90
16674;DHT22;8450;52.654;10.326;2023-11-22T00:52:24;1.80;99.90
16674;DHT22;8450;52.654;10.326;2023-11-22T00:54:49;1.70;99.90
16674;DHT22;8450;52.654;10.326;2023-11-22T00:57:15;1.70;99.90
16674;DHT22;8450;52.654;10.326;2023-11-22T00:59:41;1.60;99.90
16674;DHT22;8450;52.654;10.326;2023-11-22T01:02:06;1.70;99.90
16674;DHT22;8450;52.654;10.326;2023-11-22T01:04:34;1.60;99.90
16674;DHT22;8450;52.654;10.326;2023-11-22T01:07:01;1.60;99.90
16674;DHT22;8450;52.654;10.326;2023-11-22T01:09:27;1.50;99.90
16674;DHT22;8450;52.654;10.326;2023-11-22T01:11:54;1.50;99.90
16674;DHT22;8450;52.654;10.326;2023-11-22T01:14:19;1.50;99.90
16674;DHT22;8450;52.654;10.326;2023-11-22T01:16:45;1.50;99.90
16674;DHT22;8450;52.654;10.326;2023-11-22T01:19:11;1.40;99.90
16674;DHT22;8450;52.654;10.326;2023-11-22T01:21:36;1.40;99.90
16674;DHT22;8450;52.654;10.326;2023-11-22T01:24:02;1.30;99.90
16674;DHT22;8450;52.654;10.326;2023-11-22T01:26:28;1.30;99.90
16674;DHT22;8450;52.654;10.326;2023-11-22T01:28:54;1.40;99.90
16674;DHT22;8450;52.654;10.326;2023-11-22T01:31:19;1.40;99.90
16674;DHT22;8450;52.654;10.326;2023-11-22T01:33:47;1.40;99.90
16674;DHT22;8450;52.654;10.326;2023-11-22T01:36:13;1.50;99.90
16674;DHT22;8450;52.654;10.326;2023-11-22T01:38:41;1.50;99.90
16674;DHT22;8450;52.654;10.326;2023-11-22T01:41:09;1.40;99.90
16674;DHT22;8450;52.654;10.326;2023-11-22T01:43:38;1.50;99.90
16674;DHT22;8450;52.654;10.326;2023-11-22T01:46:06;1.50;99.90
16674;DHT22;8450;52.654;10.326;2023-11-22T01:48:33;1.50;99.90
16674;DHT22;8450;52.654;10.326;2023-11-22T01:50:58;1.50;99.90
16674;DHT22;8450;52.654;10.326;2023-11-22T01:53:24;1.50;99.90
16674;DHT22;8450;52.654;10.326;2023-11-22T01:55:50;1.50;99.90
16674;DHT22;8450;52.654;10.326;2023-11-22T01:58:17;1.50;99.90
16674;DHT22;8450;52.654;10.326;2023-11-22T02:00:49;1.50;99.90
16674;DHT22;8450;52.654;10.326;2023-11-22T02:03:14;1.50;99.90
16674;DHT22;8450;52.654;10.326;2023-11-22T02:05:41;1.50;99.90
16674;DHT22;8450;52.654;10.326;2023-11-22T02:08:09;1.50;99.90
16674;DHT22;8450;52.654;10.326;2023-11-22T02:10:36;1.50;99.90
16674;DHT22;8450;52.654;10.326;2023-11-22T02:13:03;1.50;99.90
16674;DHT22;8450;52.654;10.326;2023-11-22T02:15:30;1.50;99.90
16674;DHT22;8450;52.654;10.326;2023-11-22T02:17:56;1.50;99.90
16674;DHT22;8450;52.654;10.326;2023-11-22T02:20:22;1.60;99.90
16674;DHT22;8450;52.654;10.326;2023-11-22T02:22:48;1.60;99.90
16674;DHT22;8450;52.654;10.326;2023-11-22T02:25:14;1.60;99.90
16674;DHT22;8450;52.654;10.326;2023-11-22T02:27:42;1.60;99.90
16674;DHT22;8450;52.654;10.326;2023-11-22T02:30:08;1.60;99.90
16674;DHT22;8450;52.654;10.326;2023-11-22T02:32:34;1.60;99.90
16674;DHT22;8450;52.654;10.326;2023-11-22T02:35:00;1.60;99.90
16674;DHT22;8450;52.654;10.326;2023-11-22T02:37:26;1.60;99.90
16674;DHT22;8450;52.654;10.326;2023-11-22T02:42:30;1.60;99.90
16674;DHT22;8450;52.654;10.326;2023-11-22T02:44:55;1.60;99.90
16674;DHT22;8450;52.654;10.326;2023-11-22T02:47:22;1.60;99.90
16674;DHT22;8450;52.654;10.326;2023-11-22T02:49:47;1.60;99.90
16674;DHT22;8450;52.654;10.326;2023-11-22T02:52:13;1.60;99.90
16674;DHT22;8450;52.654;10.326;2023-11-22T02:54:45;1.60;99.90
16674;DHT22;8450;52.654;10.326;2023-11-22T02:57:11;1.60;99.90
16674;DHT22;8450;52.654;10.326;2023-11-22T02:59:41;1.60;99.90
16674;DHT22;8450;52.654;10.326;2023-11-22T03:02:07;1.60;99.90
16674;DHT22;8450;52.654;10.326;2023-11-22T03:04:32;1.60;99.90
16674;DHT22;8450;52.654;10.326;2023-11-22T03:06:59;1.60;99.90
16674;DHT22;8450;52.654;10.326;2023-11-22T03:09:25;1.60;99.90
16674;DHT22;8450;52.654;10.326;2023-11-22T03:11:52;1.60;99.90
16674;DHT22;8450;52.654;10.326;2023-11-22T03:14:18;1.60;99.90
16674;DHT22;8450;52.654;10.326;2023-11-22T03:16:44;1.70;99.90
16674;DHT22;8450;52.654;10.326;2023-11-22T03:19:10;1.70;99.90
16674;DHT22;8450;52.654;10.326;2023-11-22T03:21:37;1.60;99.90
16674;DHT22;8450;52.654;10.326;2023-11-22T03:24:03;1.60;99.90
16674;DHT22;8450;52.654;10.326;2023-11-22T03:26:31;1.60;99.90
16674;DHT22;8450;52.654;10.326;2023-11-22T03:28:57;1.60;99.90
16674;DHT22;8450;52.654;10.326;2023-11-22T03:31:22;1.60;99.90
16674;DHT22;8450;52.654;10.326;2023-11-22T03:33:48;1.60;99.90
16674;DHT22;8450;52.654;10.326;2023-11-22T03:36:14;1.60;99.90
16674;DHT22;8450;52.654;10.326;2023-11-22T03:38:39;1.60;99.90
16674;DHT22;8450;52.654;10.326;2023-11-22T03:41:05;1.50;99.90
16674;DHT22;8450;52.654;10.326;2023-11-22T03:43:31;1.50;99.90
16674;DHT22;8450;52.654;10.326;2023-11-22T03:45:57;1.50;99.90
16674;DHT22;8450;52.654;10.326;2023-11-22T03:48:22;1.50;99.90
16674;DHT22;8450;52.654;10.326;2023-11-22T03:50:52;1.50;99.90
16674;DHT22;8450;52.654;10.326;2023-11-22T03:53:17;1.50;99.90
16674;DHT22;8450;52.654;10.326;2023-11-22T03:55:45;1.50;99.90
16674;DHT22;8450;52.654;10.326;2023-11-22T03:58:11;1.50;99.90
16674;DHT22;8450;52.654;10.326;2023-11-22T04:00:37;1.50;99.90
16674;DHT22;8450;52.654;10.326;2023-11-22T04:03:03;1.40;99.90
16674;DHT22;8450;52.654;10.326;2023-11-22T04:05:29;1.50;99.90
16674;DHT22;8450;52.654;10.326;2023-11-22T04:07:55;1.40;99.90
16674;DHT22;8450;52.654;10.326;2023-11-22T04:10:22;1.40;99.90
16674;DHT22;8450;52.654;10.326;2023-11-22T04:12:48;1.40;99.90
16674;DHT22;8450;52.654;10.326;2023-11-22T04:15:14;1.30;99.90
16674;DHT22;8450;52.654;10.326;2023-11-22T04:17:40;1.30;99.90
16674;DHT22;8450;52.654;10.326;2023-11-22T04:20:07;1.20;99.90
16674;DHT22;8450;52.654;10.326;2023-11-22T04:22:35;1.20;99.90
16674;DHT22;8450;52.654;10.326;2023-11-22T04:25:01;1.20;99.90
16674;DHT22;8450;52.654;10.326;2023-11-22T04:27:27;1.20;99.90
16674;DHT22;8450;52.654;10.326;2023-11-22T04:29:53;1.10;99.90
16674;DHT22;8450;52.654;10.326;2023-11-22T04:32:19;1.10;99.90
16674;DHT22;8450;52.654;10.326;2023-11-22T04:34:44;1.10;99.90
16674;DHT22;8450;52.654;10.326;2023-11-22T04:37:10;1.20;99.90
16674;DHT22;8450;52.654;10.326;2023-11-22T04:39:35;1.10;99.90
16674;DHT22;8450;52.654;10.326;2023-11-22T04:42:01;1.10;99.90
16674;DHT22;8450;52.654;10.326;2023-11-22T04:44:26;1.00;99.90
16674;DHT22;8450;52.654;10.326;2023-11-22T04:46:52;1.00;99.90
16674;DHT22;8450;52.654;10.326;2023-11-22T04:49:17;0.90;99.90
16674;DHT22;8450;52.654;10.326;2023-11-22T04:51:43;0.90;99.90
16674;DHT22;8450;52.654;10.326;2023-11-22T04:54:11;0.90;99.90
16674;DHT22;8450;52.654;10.326;2023-11-22T04:56:36;0.90;99.90
16674;DHT22;8450;52.654;10.326;2023-11-22T04:59:02;0.80;99.90
16674;DHT22;8450;52.654;10.326;2023-11-22T05:01:35;0.80;99.90
16674;DHT22;8450;52.654;10.326;2023-11-22T05:04:01;0.80;99.90
16674;DHT22;8450;52.654;10.326;2023-11-22T05:06:27;0.80;99.90
16674;DHT22;8450;52.654;10.326;2023-11-22T05:08:54;0.70;99.90
16674;DHT22;8450;52.654;10.326;2023-11-22T05:11:23;0.70;99.90
16674;DHT22;8450;52.654;10.326;2023-11-22T05:13:48;0.60;99.90
16674;DHT22;8450;52.654;10.326;2023-11-22T05:16:16;0.70;99.90
16674;DHT22;8450;52.654;10.326;2023-11-22T05:18:42;0.60;99.90
16674;DHT22;8450;52.654;10.326;2023-11-22T05:21:07;0.60;99.90
16674;DHT22;8450;52.654;10.326;2023-11-22T05:23:33;0.60;99.90
16674;DHT22;8450;52.654;10.326;2023-11-22T05:25:58;0.60;99.90
16674;DHT22;8450;52.654;10.326;2023-11-22T05:28:25;0.60;99.90
16674;DHT22;8450;52.654;10.326;2023-11-22T05:30:51;0.50;99.90
16674;DHT22;8450;52.654;10.326;2023-11-22T05:33:16;0.50;99.90
16674;DHT22;8450;52.654;10.326;2023-11-22T05:35:42;0.50;99.90
16674;DHT22;8450;52.654;10.326;2023-11-22T05:38:08;0.40;99.90
16674;DHT22;8450;52.654;10.326;2023-11-22T05:40:34;0.40;99.90
16674;DHT22;8450;52.654;10.326;2023-11-22T05:42:59;0.50;99.90
16674;DHT22;8450;52.654;10.326;2023-11-22T05:45:25;0.40;99.90
16674;DHT22;8450;52.654;10.326;2023-11-22T05:47:51;0.40;99.90
16674;DHT22;8450;52.654;10.326;2023-11-22T05:50:17;0.40;99.90
16674;DHT22;8450;52.654;10.326;2023-11-22T05:52:43;0.30;99.90
16674;DHT22;8450;52.654;10.326;2023-11-22T05:55:09;0.30;99.90
16674;DHT22;8450;52.654;10.326;2023-11-22T05:57:35;0.30;99.90
16674;DHT22;8450;52.654;10.326;2023-11-22T06:00:01;0.20;99.90
16674;DHT22;8450;52.654;10.326;2023-11-22T06:02:29;0.10;99.90
16674;DHT22;8450;52.654;10.326;2023-11-22T06:04:55;0.10;99.90
16674;DHT22;8450;52.654;10.326;2023-11-22T06:07:21;0.10;99.90
16674;DHT22;8450;52.654;10.326;2023-11-22T06:09:46;0.00;99.90
16674;DHT22;8450;52.654;10.326;2023-11-22T06:12:12;0.10;99.90
16674;DHT22;8450;52.654;10.326;2023-11-22T06:14:38;0.10;99.90
16674;DHT22;8450;52.654;10.326;2023-11-22T06:17:04;0.00;99.90
16674;DHT22;8450;52.654;10.326;2023-11-22T06:19:29;0.10;99.90
16674;DHT22;8450;52.654;10.326;2023-11-22T06:21:55;0.10;99.90
16674;DHT22;8450;52.654;10.326;2023-11-22T06:24:21;0.10;99.90
16674;DHT22;8450;52.654;10.326;2023-11-22T06:26:47;0.10;99.90
16674;DHT22;8450;52.654;10.326;2023-11-22T06:29:13;0.00;99.90
16674;DHT22;8450;52.654;10.326;2023-11-22T06:31:38;0.00;99.90
16674;DHT22;8450;52.654;10.326;2023-11-22T06:34:04;0.00;99.90
16674;DHT22;8450;52.654;10.326;2023-11-22T06:36:30;0.10;99.90
16674;DHT22;8450;52.654;10.326;2023-11-22T06:38:55;0.10;99.90
16674;DHT22;8450;52.654;10.326;2023-11-22T06:41:21;0.10;99.90
16674;DHT22;8450;52.654;10.326;2023-11-22T06:43:50;0.00;99.90
16674;DHT22;8450;52.654;10.326;2023-11-22T06:46:16;0.00;99.90
16674;DHT22;8450;52.654;10.326;2023-11-22T06:48:44;0.00;99.90
16674;DHT22;8450;52.654;10.326;2023-11-22T06:51:10;0.00;99.90
16674;DHT22;8450;52.654;10.326;2023-11-22T06:53:35;0.00;99.90
16674;DHT22;8450;52.654;10.326;2023-11-22T06:56:01;0.00;99.90
16674;DHT22;8450;52.654;10.326;2023-11-22T06:58:27;0.00;99.90
16674;DHT22;8450;52.654;10.326;2023-11-22T07:00:53;-0.10;99.90
16674;DHT22;8450;52.654;10.326;2023-11-22T07:03:18;-0.10;99.90
16674;DHT22;8450;52.654;10.326;2023-11-22T07:05:44;-0.10;99.90
16674;DHT22;8450;52.654;10.326;2023-11-22T07:08:09;-0.10;99.90
16674;DHT22;8450;52.654;10.326;2023-11-22T07:10:36;-0.10;99.90
16674;DHT22;8450;52.654;10.326;2023-11-22T07:13:02;0.00;99.90
16674;DHT22;8450;52.654;10.326;2023-11-22T07:15:28;-0.10;99.90
16674;DHT22;8450;52.654;10.326;2023-11-22T07:17:54;0.00;99.90
16674;DHT22;8450;52.654;10.326;2023-11-22T07:20:20;0.00;99.90
16674;DHT22;8450;52.654;10.326;2023-11-22T07:22:46;0.00;99.90
16674;DHT22;8450;52.654;10.326;2023-11-22T07:25:11;0.00;99.90
16674;DHT22;8450;52.654;10.326;2023-11-22T07:27:45;0.00;99.90
16674;DHT22;8450;52.654;10.326;2023-11-22T07:30:12;0.10;99.90
16674;DHT22;8450;52.654;10.326;2023-11-22T07:32:39;0.10;99.90
16674;DHT22;8450;52.654;10.326;2023-11-22T07:35:08;0.20;99.90
16674;DHT22;8450;52.654;10.326;2023-11-22T07:37:37;0.10;99.90
16674;DHT22;8450;52.654;10.326;2023-11-22T07:40:06;0.10;99.90
16674;DHT22;8450;52.654;10.326;2023-11-22T07:42:33;0.20;99.90
16674;DHT22;8450;52.654;10.326;2023-11-22T07:44:59;0.20;99.90
16674;DHT22;8450;52.654;10.326;2023-11-22T07:47:24;0.20;99.90
16674;DHT22;8450;52.654;10.326;2023-11-22T07:49:52;0.20;99.90
16674;DHT22;8450;52.654;10.326;2023-11-22T07:52:21;0.20;99.90
16674;DHT22;8450;52.654;10.326;2023-11-22T07:54:47;0.20;99.90
16674;DHT22;8450;52.654;10.326;2023-11-22T07:57:13;0.20;99.90
16674;DHT22;8450;52.654;10.326;2023-11-22T07:59:39;0.20;99.90
16674;DHT22;8450;52.654;10.326;2023-11-22T08:02:05;0.30;99.90
16674;DHT22;8450;52.654;10.326;2023-11-22T08:04:36;0.40;99.90
16674;DHT22;8450;52.654;10.326;2023-11-22T08:07:03;0.30;99.90
16674;DHT22;8450;52.654;10.326;2023-11-22T08:09:30;0.40;99.90
16674;DHT22;8450;52.654;10.326;2023-11-22T08:11:59;0.40;99.90
16674;DHT22;8450;52.654;10.326;2023-11-22T08:14:27;0.50;99.90
16674;DHT22;8450;52.654;10.326;2023-11-22T08:16:54;0.50;99.90
16674;DHT22;8450;52.654;10.326;2023-11-22T08:19:20;0.50;99.90
16674;DHT22;8450;52.654;10.326;2023-11-22T08:21:47;0.60;99.90
16674;DHT22;8450;52.654;10.326;2023-11-22T08:24:13;0.60;99.90
16674;DHT22;8450;52.654;10.326;2023-11-22T08:26:39;0.60;99.90
16674;DHT22;8450;52.654;10.326;2023-11-22T08:29:05;0.60;99.90
16674;DHT22;8450;52.654;10.326;2023-11-22T08:31:30;0.70;99.90
16674;DHT22;8450;52.654;10.326;2023-11-22T08:33:56;0.70;99.90
16674;DHT22;8450;52.654;10.326;2023-11-22T08:36:22;0.70;99.90
16674;DHT22;8450;52.654;10.326;2023-11-22T08:38:49;0.80;99.90
16674;DHT22;8450;52.654;10.326;2023-11-22T08:41:15;0.80;99.90
16674;DHT22;8450;52.654;10.326;2023-11-22T08:43:41;0.80;99.90
16674;DHT22;8450;52.654;10.326;2023-11-22T08:46:07;0.90;99.90
16674;DHT22;8450;52.654;10.326;2023-11-22T08:48:34;0.80;99.90
16674;DHT22;8450;52.654;10.326;2023-11-22T08:51:00;0.90;99.90
16674;DHT22;8450;52.654;10.326;2023-11-22T08:53:26;0.90;99.90
16674;DHT22;8450;52.654;10.326;2023-11-22T08:55:52;0.80;99.90
16674;DHT22;8450;52.654;10.326;2023-11-22T08:58:20;0.90;99.90
16674;DHT22;8450;52.654;10.326;2023-11-22T09:00:46;0.90;99.90
16674;DHT22;8450;52.654;10.326;2023-11-22T09:03:12;1.00;99.90
16674;DHT22;8450;52.654;10.326;2023-11-22T09:05:41;0.90;99.90
16674;DHT22;8450;52.654;10.326;2023-11-22T09:08:08;0.90;99.90
16674;DHT22;8450;52.654;10.326;2023-11-22T09:10:38;0.90;99.90
16674;DHT22;8450;52.654;10.326;2023-11-22T09:13:05;1.00;99.90
16674;DHT22;8450;52.654;10.326;2023-11-22T09:15:31;1.00;99.90
16674;DHT22;8450;52.654;10.326;2023-11-22T09:17:59;1.00;99.90
16674;DHT22;8450;52.654;10.326;2023-11-22T09:20:25;1.00;99.90
16674;DHT22;8450;52.654;10.326;2023-11-22T09:22:52;1.10;99.90
16674;DHT22;8450;52.654;10.326;2023-11-22T09:25:25;1.00;99.90
16674;DHT22;8450;52.654;10.326;2023-11-22T09:27:52;1.10;99.90
16674;DHT22;8450;52.654;10.326;2023-11-22T09:30:22;1.10;99.90
16674;DHT22;8450;52.654;10.326;2023-11-22T09:33:18;1.10;99.90
16674;DHT22;8450;52.654;10.326;2023-11-22T09:35:45;1.20;99.90
16674;DHT22;8450;52.654;10.326;2023-11-22T09:38:12;1.20;99.90
16674;DHT22;8450;52.654;10.326;2023-11-22T09:40:41;1.30;99.90
16674;DHT22;8450;52.654;10.326;2023-11-22T09:43:07;1.30;99.90
16674;DHT22;8450;52.654;10.326;2023-11-22T09:45:32;1.30;99.90
16674;DHT22;8450;52.654;10.326;2023-11-22T09:47:59;1.30;99.90
16674;DHT22;8450;52.654;10.326;2023-11-22T09:50:35;1.30;99.90
16674;DHT22;8450;52.654;10.326;2023-11-22T09:53:52;1.40;99.90
16674;DHT22;8450;52.654;10.326;2023-11-22T09:55:53;1.40;99.90
16674;DHT22;8450;52.654;10.326;2023-11-22T09:58:19;1.40;99.90
16674;DHT22;8450;52.654;10.326;2023-11-22T10:00:46;1.30;99.90
16674;DHT22;8450;52.654;10.326;2023-11-22T10:03:13;1.30;99.90
16674;DHT22;8450;52.654;10.326;2023-11-22T10:05:43;1.40;99.90
16674;DHT22;8450;52.654;10.326;2023-11-22T10:08:08;1.50;99.90
16674;DHT22;8450;52.654;10.326;2023-11-22T10:10:36;1.50;99.90
16674;DHT22;8450;52.654;10.326;2023-11-22T10:13:02;1.50;99.90
16674;DHT22;8450;52.654;10.326;2023-11-22T10:15:29;1.50;99.90
16674;DHT22;8450;52.654;10.326;2023-11-22T10:17:56;1.50;99.90
16674;DHT22;8450;52.654;10.326;2023-11-22T10:20:35;1.50;99.90
16674;DHT22;8450;52.654;10.326;2023-11-22T10:23:17;1.60;99.90
16674;DHT22;8450;52.654;10.326;2023-11-22T10:25:52;1.70;99.90
16674;DHT22;8450;52.654;10.326;2023-11-22T10:28:19;1.70;99.90
16674;DHT22;8450;52.654;10.326;2023-11-22T10:30:48;1.70;99.90
16674;DHT22;8450;52.654;10.326;2023-11-22T10:33:16;1.70;99.90
16674;DHT22;8450;52.654;10.326;2023-11-22T10:35:43;1.60;99.90
16674;DHT22;8450;52.654;10.326;2023-11-22T10:38:09;1.60;99.90
16674;DHT22;8450;52.654;10.326;2023-11-22T10:40:36;1.70;99.90
16674;DHT22;8450;52.654;10.326;2023-11-22T10:43:03;1.60;99.90
16674;DHT22;8450;52.654;10.326;2023-11-22T10:45:30;1.50;99.90
16674;DHT22;8450;52.654;10.326;2023-11-22T10:48:00;1.40;99.90
16674;DHT22;8450;52.654;10.326;2023-11-22T10:50:26;1.40;99.90
16674;DHT22;8450;52.654;10.326;2023-11-22T10:53:42;1.50;99.90
16674;DHT22;8450;52.654;10.326;2023-11-22T10:55:59;1.50;99.90
16674;DHT22;8450;52.654;10.326;2023-11-22T10:58:28;1.50;99.90
16674;DHT22;8450;52.654;10.326;2023-11-22T11:00:58;1.60;99.90
16674;DHT22;8450;52.654;10.326;2023-11-22T11:03:28;1.50;99.90
16674;DHT22;8450;52.654;10.326;2023-11-22T11:06:02;1.50;99.90
16674;DHT22;8450;52.654;10.326;2023-11-22T11:08:33;1.40;99.90
16674;DHT22;8450;52.654;10.326;2023-11-22T11:11:01;1.30;99.90
16674;DHT22;8450;52.654;10.326;2023-11-22T11:13:30;1.40;99.90
16674;DHT22;8450;52.654;10.326;2023-11-22T11:15:56;1.50;99.90
16674;DHT22;8450;52.654;10.326;2023-11-22T11:18:22;1.60;99.90
16674;DHT22;8450;52.654;10.326;2023-11-22T11:20:52;1.60;99.90
16674;DHT22;8450;52.654;10.326;2023-11-22T11:23:22;1.60;99.90
16674;DHT22;8450;52.654;10.326;2023-11-22T11:25:54;1.60;99.90
16674;DHT22;8450;52.654;10.326;2023-11-22T11:28:20;1.70;99.90
16674;DHT22;8450;52.654;10.326;2023-11-22T11:30:47;1.80;99.90
16674;DHT22;8450;52.654;10.326;2023-11-22T11:33:33;1.70;99.90
16674;DHT22;8450;52.654;10.326;2023-11-22T11:36:01;1.60;99.90
16674;DHT22;8450;52.654;10.326;2023-11-22T11:38:34;1.70;99.90
16674;DHT22;8450;52.654;10.326;2023-11-22T11:41:10;1.80;99.90
16674;DHT22;8450;52.654;10.326;2023-11-22T11:43:49;1.90;99.90
16674;DHT22;8450;52.654;10.326;2023-11-22T11:46:16;1.80;99.90
16674;DHT22;8450;52.654;10.326;2023-11-22T11:48:50;1.90;99.90
16674;DHT22;8450;52.654;10.326;2023-11-22T11:51:21;1.90;99.90
16674;DHT22;8450;52.654;10.326;2023-11-22T11:53:48;1.80;99.90
16674;DHT22;8450;52.654;10.326;2023-11-22T11:56:15;1.90;99.90
16674;DHT22;8450;52.654;10.326;2023-11-22T11:58:48;1.90;99.90
16674;DHT22;8450;52.654;10.326;2023-11-22T12:01:18;1.90;99.90
16674;DHT22;8450;52.654;10.326;2023-11-22T12:03:46;2.00;99.90
16674;DHT22;8450;52.654;10.326;2023-11-22T12:06:18;2.00;99.90
16674;DHT22;8450;52.654;10.326;2023-11-22T12:08:45;2.10;99.90
16674;DHT22;8450;52.654;10.326;2023-11-22T12:11:11;2.10;99.90
16674;DHT22;8450;52.654;10.326;2023-11-22T12:13:37;2.10;99.90
16674;DHT22;8450;52.654;10.326;2023-11-22T12:16:14;2.10;99.90
16674;DHT22;8450;52.654;10.326;2023-11-22T12:18:44;2.10;99.90
16674;DHT22;8450;52.654;10.326;2023-11-22T12:21:11;2.10;99.90
16674;DHT22;8450;52.654;10.326;2023-11-22T12:23:40;1.90;99.90
16674;DHT22;8450;52.654;10.326;2023-11-22T12:26:14;1.90;99.90
16674;DHT22;8450;52.654;10.326;2023-11-22T12:28:41;2.00;99.90
16674;DHT22;8450;52.654;10.326;2023-11-22T12:31:11;2.00;99.90
16674;DHT22;8450;52.654;10.326;2023-11-22T12:33:38;2.00;99.90
16674;DHT22;8450;52.654;10.326;2023-11-22T12:36:05;2.00;99.90
16674;DHT22;8450;52.654;10.326;2023-11-22T12:38:31;1.90;99.90
16674;DHT22;8450;52.654;10.326;2023-11-22T12:40:57;2.00;99.90
16674;DHT22;8450;52.654;10.326;2023-11-22T12:43:23;2.00;99.90
16674;DHT22;8450;52.654;10.326;2023-11-22T12:46:01;2.00;99.90
16674;DHT22;8450;52.654;10.326;2023-11-22T12:48:27;2.10;99.90
16674;DHT22;8450;52.654;10.326;2023-11-22T12:50:56;2.00;99.90
16674;DHT22;8450;52.654;10.326;2023-11-22T12:53:23;2.00;99.90
16674;DHT22;8450;52.654;10.326;2023-11-22T12:55:51;2.00;99.90
16674;DHT22;8450;52.654;10.326;2023-11-22T12:58:22;1.90;99.90
16674;DHT22;8450;52.654;10.326;2023-11-22T13:00:50;1.90;99.90
16674;DHT22;8450;52.654;10.326;2023-11-22T13:03:16;1.90;99.90
16674;DHT22;8450;52.654;10.326;2023-11-22T13:05:45;1.90;99.90
16674;DHT22;8450;52.654;10.326;2023-11-22T13:08:12;1.80;99.90
16674;DHT22;8450;52.654;10.326;2023-11-22T13:10:46;1.80;99.90
16674;DHT22;8450;52.654;10.326;2023-11-22T13:13:13;1.80;99.90
16674;DHT22;8450;52.654;10.326;2023-11-22T13:15:39;1.80;99.90
16674;DHT22;8450;52.654;10.326;2023-11-22T13:18:06;1.70;99.90
16674;DHT22;8450;52.654;10.326;2023-11-22T13:20:32;1.70;99.90
16674;DHT22;8450;52.654;10.326;2023-11-22T13:22:58;1.70;99.90
16674;DHT22;8450;52.654;10.326;2023-11-22T13:25:25;1.70;99.90
16674;DHT22;8450;52.654;10.326;2023-11-22T13:27:52;1.60;99.90
16674;DHT22;8450;52.654;10.326;2023-11-22T13:30:19;1.60;99.90
16674;DHT22;8450;52.654;10.326;2023-11-22T13:32:49;1.60;99.90
16674;DHT22;8450;52.654;10.326;2023-11-22T13:35:14;1.60;99.90
16674;DHT22;8450;52.654;10.326;2023-11-22T13:37:41;1.50;99.90
16674;DHT22;8450;52.654;10.326;2023-11-22T13:40:11;1.50;99.90
16674;DHT22;8450;52.654;10.326;2023-11-22T13:45:31;1.60;99.90
16674;DHT22;8450;52.654;10.326;2023-11-22T13:48:00;1.60;99.90
16674;DHT22;8450;52.654;10.326;2023-11-22T13:50:35;1.60;99.90
16674;DHT22;8450;52.654;10.326;2023-11-22T13:53:01;1.60;99.90
16674;DHT22;8450;52.654;10.326;2023-11-22T13:55:29;1.60;99.90
16674;DHT22;8450;52.654;10.326;2023-11-22T13:57:57;1.60;99.90
16674;DHT22;8450;52.654;10.326;2023-11-22T14:00:24;1.60;99.90
16674;DHT22;8450;52.654;10.326;2023-11-22T14:02:53;1.60;99.90
16674;DHT22;8450;52.654;10.326;2023-11-22T14:05:22;1.70;99.90
16674;DHT22;8450;52.654;10.326;2023-11-22T14:07:47;1.80;99.90
16674;DHT22;8450;52.654;10.326;2023-11-22T14:10:14;1.80;99.90
16674;DHT22;8450;52.654;10.326;2023-11-22T14:12:42;1.70;99.90
16674;DHT22;8450;52.654;10.326;2023-11-22T14:15:09;1.80;99.90
16674;DHT22;8450;52.654;10.326;2023-11-22T14:17:36;1.80;99.90
16674;DHT22;8450;52.654;10.326;2023-11-22T14:20:05;1.80;99.90
16674;DHT22;8450;52.654;10.326;2023-11-22T14:22:32;1.80;99.90
16674;DHT22;8450;52.654;10.326;2023-11-22T14:24:58;1.70;99.90
16674;DHT22;8450;52.654;10.326;2023-11-22T14:27:23;1.60;99.90
16674;DHT22;8450;52.654;10.326;2023-11-22T14:29:49;1.60;99.90
16674;DHT22;8450;52.654;10.326;2023-11-22T14:32:20;1.60;99.90
16674;DHT22;8450;52.654;10.326;2023-11-22T14:34:49;1.50;99.90
16674;DHT22;8450;52.654;10.326;2023-11-22T14:37:14;1.50;99.90
16674;DHT22;8450;52.654;10.326;2023-11-22T14:39:41;1.50;99.90
16674;DHT22;8450;52.654;10.326;2023-11-22T14:42:06;1.50;99.90
16674;DHT22;8450;52.654;10.326;2023-11-22T14:44:33;1.50;99.90
16674;DHT22;8450;52.654;10.326;2023-11-22T14:47:00;1.50;99.90
16674;DHT22;8450;52.654;10.326;2023-11-22T14:49:34;1.50;99.90
16674;DHT22;8450;52.654;10.326;2023-11-22T14:52:00;1.50;99.90
16674;DHT22;8450;52.654;10.326;2023-11-22T14:54:26;1.50;99.90
16674;DHT22;8450;52.654;10.326;2023-11-22T14:56:53;1.40;99.90
16674;DHT22;8450;52.654;10.326;2023-11-22T14:59:21;1.40;99.90
16674;DHT22;8450;52.654;10.326;2023-11-22T15:01:47;1.30;99.90
16674;DHT22;8450;52.654;10.326;2023-11-22T15:04:13;1.30;99.90
16674;DHT22;8450;52.654;10.326;2023-11-22T15:06:40;1.30;99.90
16674;DHT22;8450;52.654;10.326;2023-11-22T15:09:06;1.30;99.90
16674;DHT22;8450;52.654;10.326;2023-11-22T15:11:36;1.30;99.90
16674;DHT22;8450;52.654;10.326;2023-11-22T15:14:03;1.30;99.90
16674;DHT22;8450;52.654;10.326;2023-11-22T15:16:29;1.30;99.90
16674;DHT22;8450;52.654;10.326;2023-11-22T15:18:56;1.30;99.90
16674;DHT22;8450;52.654;10.326;2023-11-22T15:21:22;1.30;99.90
16674;DHT22;8450;52.654;10.326;2023-11-22T15:23:48;1.20;99.90
16674;DHT22;8450;52.654;10.326;2023-11-22T15:26:13;1.30;99.90
16674;DHT22;8450;52.654;10.326;2023-11-22T15:28:39;1.20;99.90
16674;DHT22;8450;52.654;10.326;2023-11-22T15:31:05;1.20;99.90
16674;DHT22;8450;52.654;10.326;2023-11-22T15:33:31;1.20;99.90
16674;DHT22;8450;52.654;10.326;2023-11-22T15:35:57;1.20;99.90
16674;DHT22;8450;52.654;10.326;2023-11-22T15:38:22;1.20;99.90
16674;DHT22;8450;52.654;10.326;2023-11-22T15:40:48;1.20;99.90
16674;DHT22;8450;52.654;10.326;2023-11-22T15:43:15;1.20;99.90
16674;DHT22;8450;52.654;10.326;2023-11-22T15:45:41;1.20;99.90
16674;DHT22;8450;52.654;10.326;2023-11-22T15:48:08;1.20;99.90
16674;DHT22;8450;52.654;10.326;2023-11-22T15:50:34;1.20;99.90